Time,TemperatureF,DewpointF,PressureIn,WindDirection,WindDirectionDegrees,WindSpeedMPH,WindSpeedGustMPH,Humidity,HourlyPrecipIn,Conditions,Clouds,dailyrainin,SoftwareType,DateUTC
2013-11-18 00:01:00,52.0,47.3,29.42,West,264,39.0,48.0,84,0.00,,,0.38,meteohub,2013-11-18 05:01:00,
2013-11-18 00:02:00,52.2,47.5,29.42,West,260,38.0,48.0,84,0.00,,,0.38,meteohub,2013-11-18 05:02:00,
2013-11-18 00:03:00,52.2,47.5,29.42,West,275,38.0,48.0,84,0.00,,,0.38,meteohub,2013-11-18 05:03:00,
2013-11-18 00:04:00,52.2,47.5,29.42,WSW,254,27.0,48.0,84,0.00,,,0.38,meteohub,2013-11-18 05:04:00,
2013-11-18 00:09:00,52.9,47.3,29.42,West,260,32.0,45.0,81,0.00,,,0.38,meteohub,2013-11-18 05:09:00,
2013-11-18 00:14:00,52.9,47.3,29.42,West,264,34.0,43.0,81,0.00,,,0.38,meteohub,2013-11-18 05:14:00,
2013-11-18 00:19:00,52.9,47.3,29.43,West,267,34.0,43.0,81,0.00,,,0.38,meteohub,2013-11-18 05:19:00,
2013-11-18 00:24:00,52.3,46.9,29.43,West,259,34.0,43.0,82,0.00,,,0.38,meteohub,2013-11-18 05:24:00,
2013-11-18 00:30:00,52.3,46.8,29.43,WSW,252,44.0,44.0,81,0.00,,,0.38,meteohub,2013-11-18 05:30:00,
2013-11-18 00:35:00,52.7,45.7,29.43,WSW,248,39.0,46.0,77,0.00,,,0.38,meteohub,2013-11-18 05:35:00,
2013-11-18 00:40:00,53.4,45.3,29.43,West,260,33.0,46.0,74,0.00,,,0.38,meteohub,2013-11-18 05:40:00,
2013-11-18 00:45:00,53.2,45.1,29.44,West,262,38.0,46.0,74,0.00,,,0.38,meteohub,2013-11-18 05:45:00,
2013-11-18 00:50:00,52.5,45.5,29.44,West,262,45.0,46.0,77,0.00,,,0.38,meteohub,2013-11-18 05:50:00,
2013-11-18 00:55:00,52.2,45.5,29.44,West,259,39.0,47.0,78,0.00,,,0.38,meteohub,2013-11-18 05:55:00,
2013-11-18 01:00:00,52.0,45.7,29.45,West,259,40.0,49.0,79,0.00,,,0.38,meteohub,2013-11-18 06:00:00,
2013-11-18 01:06:00,52.0,45.7,29.45,WSW,245,43.0,55.0,79,0.00,,,0.38,meteohub,2013-11-18 06:06:00,
2013-11-18 01:11:00,51.6,45.7,29.46,WSW,257,43.0,58.0,80,0.00,,,0.38,meteohub,2013-11-18 06:11:00,
2013-11-18 01:16:00,51.6,45.3,29.46,WSW,252,45.0,58.0,79,0.00,,,0.38,meteohub,2013-11-18 06:16:00,
2013-11-18 01:21:00,51.4,45.5,29.47,WSW,254,39.0,56.0,80,0.00,,,0.38,meteohub,2013-11-18 06:21:00,
2013-11-18 01:26:00,51.3,45.3,29.47,WSW,258,38.0,56.0,80,0.00,,,0.38,meteohub,2013-11-18 06:26:00,
2013-11-18 01:31:00,51.4,45.1,29.47,West,264,27.0,54.0,79,0.00,,,0.38,meteohub,2013-11-18 06:31:00,
2013-11-18 01:36:00,51.3,45.7,29.47,West,259,43.0,54.0,81,0.00,,,0.38,meteohub,2013-11-18 06:36:00,
2013-11-18 01:41:00,51.1,45.5,29.47,WSW,254,42.0,54.0,81,0.00,,,0.38,meteohub,2013-11-18 06:41:00,
2013-11-18 01:47:00,51.1,45.5,29.48,WSW,248,44.0,52.0,81,0.00,,,0.38,meteohub,2013-11-18 06:47:00,
2013-11-18 01:52:00,50.7,45.1,29.48,West,261,44.0,52.0,81,0.00,,,0.38,meteohub,2013-11-18 06:52:00,
2013-11-18 01:57:00,50.7,45.5,29.48,WSW,252,40.0,54.0,82,0.00,,,0.38,meteohub,2013-11-18 06:57:00,
2013-11-18 02:02:00,50.7,45.1,29.49,WSW,241,40.0,54.0,81,0.00,,,0.38,meteohub,2013-11-18 07:02:00,
2013-11-18 02:07:00,50.5,45.3,29.49,WSW,252,38.0,58.0,82,0.00,,,0.38,meteohub,2013-11-18 07:07:00,
2013-11-18 02:12:00,50.5,45.3,29.49,WSW,252,46.0,58.0,82,0.00,,,0.38,meteohub,2013-11-18 07:12:00,
2013-11-18 02:17:00,50.5,45.0,29.49,WSW,252,41.0,58.0,81,0.00,,,0.38,meteohub,2013-11-18 07:17:00,
2013-11-18 02:22:00,50.5,45.0,29.50,WSW,247,40.0,51.0,81,0.00,,,0.38,meteohub,2013-11-18 07:22:00,
2013-11-18 02:27:00,50.5,45.0,29.50,WSW,250,37.0,51.0,81,0.00,,,0.38,meteohub,2013-11-18 07:27:00,
2013-11-18 02:32:00,50.5,45.0,29.51,WSW,254,35.0,51.0,81,0.00,,,0.38,meteohub,2013-11-18 07:32:00,
2013-11-18 02:37:00,50.4,44.8,29.52,WSW,250,46.0,51.0,81,0.00,,,0.38,meteohub,2013-11-18 07:37:00,
2013-11-18 02:42:00,50.4,44.8,29.51,WSW,254,36.0,51.0,81,0.00,,,0.38,meteohub,2013-11-18 07:42:00,
2013-11-18 02:47:00,50.2,45.0,29.52,West,260,40.0,54.0,82,0.00,,,0.38,meteohub,2013-11-18 07:47:00,
2013-11-18 02:52:00,50.0,44.8,29.52,WSW,247,45.0,54.0,82,0.00,,,0.38,meteohub,2013-11-18 07:52:00,
2013-11-18 02:57:00,50.0,44.4,29.52,West,259,47.0,54.0,81,0.00,,,0.38,meteohub,2013-11-18 07:57:00,
2013-11-18 03:02:00,49.8,44.6,29.52,West,263,40.0,55.0,82,0.00,,,0.38,meteohub,2013-11-18 08:02:00,
2013-11-18 03:07:00,49.8,44.8,29.53,WSW,254,35.0,55.0,83,0.00,,,0.38,meteohub,2013-11-18 08:07:00,
2013-11-18 03:12:00,49.8,44.8,29.53,WSW,250,32.0,55.0,83,0.00,,,0.38,meteohub,2013-11-18 08:12:00,
2013-11-18 03:17:00,49.6,45.0,29.53,West,267,42.0,52.0,84,0.00,,,0.38,meteohub,2013-11-18 08:17:00,
2013-11-18 03:22:00,49.5,45.1,29.54,West,259,35.0,48.0,85,0.00,,,0.38,meteohub,2013-11-18 08:22:00,
2013-11-18 03:27:00,49.3,44.4,29.54,West,259,32.0,46.0,83,0.00,,,0.38,meteohub,2013-11-18 08:27:00,
2013-11-18 03:32:00,49.1,44.2,29.54,West,261,41.0,46.0,83,0.00,,,0.38,meteohub,2013-11-18 08:32:00,
2013-11-18 03:37:00,49.1,44.4,29.54,WSW,254,42.0,46.0,84,0.00,,,0.38,meteohub,2013-11-18 08:37:00,
2013-11-18 03:42:00,48.9,44.1,29.55,West,270,37.0,46.0,83,0.00,,,0.38,meteohub,2013-11-18 08:42:00,
2013-11-18 03:47:00,48.9,44.2,29.55,West,263,40.0,46.0,84,0.00,,,0.38,meteohub,2013-11-18 08:47:00,
2013-11-18 03:52:00,48.9,44.1,29.56,West,262,47.0,47.0,83,0.00,,,0.38,meteohub,2013-11-18 08:52:00,
2013-11-18 03:57:00,48.9,44.2,29.56,West,264,37.0,49.0,84,0.00,,,0.38,meteohub,2013-11-18 08:57:00,
2013-11-18 04:02:00,48.7,44.4,29.56,WSW,255,46.0,50.0,85,0.00,,,0.38,meteohub,2013-11-18 09:02:00,
2013-11-18 04:07:00,48.9,43.7,29.56,West,273,40.0,50.0,82,0.00,,,0.38,meteohub,2013-11-18 09:07:00,
2013-11-18 04:12:00,48.9,43.3,29.57,West,261,37.0,50.0,81,0.00,,,0.38,meteohub,2013-11-18 09:12:00,
2013-11-18 04:17:00,48.9,43.3,29.57,West,259,40.0,47.0,81,0.00,,,0.38,meteohub,2013-11-18 09:17:00,
2013-11-18 04:22:00,48.9,43.0,29.57,West,269,30.0,49.0,80,0.00,,,0.38,meteohub,2013-11-18 09:22:00,
2013-11-18 04:27:00,48.7,43.2,29.57,West,263,33.0,49.0,81,0.00,,,0.38,meteohub,2013-11-18 09:27:00,
2013-11-18 04:32:00,48.7,43.2,29.57,West,271,35.0,46.0,81,0.00,,,0.38,meteohub,2013-11-18 09:32:00,
2013-11-18 04:37:00,48.6,43.9,29.57,West,261,32.0,43.0,84,0.00,,,0.38,meteohub,2013-11-18 09:37:00,
2013-11-18 04:42:00,48.4,44.1,29.58,WSW,252,39.0,41.0,85,0.00,,,0.38,meteohub,2013-11-18 09:42:00,
2013-11-18 04:47:00,48.2,43.3,29.58,WSW,252,42.0,42.0,83,0.00,,,0.38,meteohub,2013-11-18 09:47:00,
2013-11-18 04:52:00,48.4,43.5,29.58,West,261,33.0,42.0,83,0.00,,,0.38,meteohub,2013-11-18 09:52:00,
2013-11-18 04:57:00,48.4,43.2,29.58,West,266,33.0,46.0,82,0.00,,,0.38,meteohub,2013-11-18 09:57:00,
2013-11-18 05:02:00,48.4,43.2,29.59,WSW,257,33.0,46.0,82,0.00,,,0.38,meteohub,2013-11-18 10:02:00,
2013-11-18 05:07:00,48.4,43.5,29.59,West,264,37.0,46.0,83,0.00,,,0.38,meteohub,2013-11-18 10:07:00,
2013-11-18 05:12:00,48.2,43.3,29.59,West,263,28.0,46.0,83,0.00,,,0.38,meteohub,2013-11-18 10:12:00,
2013-11-18 05:17:00,48.4,42.8,29.59,West,259,33.0,46.0,81,0.00,,,0.38,meteohub,2013-11-18 10:17:00,
2013-11-18 05:22:00,48.4,43.2,29.59,West,263,31.0,46.0,82,0.00,,,0.38,meteohub,2013-11-18 10:22:00,
2013-11-18 05:27:00,48.2,43.0,29.59,WSW,258,32.0,45.0,82,0.00,,,0.38,meteohub,2013-11-18 10:27:00,
2013-11-18 05:32:00,48.0,43.2,29.59,WSW,252,31.0,41.0,83,0.00,,,0.38,meteohub,2013-11-18 10:32:00,
2013-11-18 05:38:00,47.8,42.6,29.60,WSW,254,33.0,40.0,82,0.00,,,0.38,meteohub,2013-11-18 10:38:00,
2013-11-18 05:43:00,47.8,42.6,29.60,West,266,34.0,38.0,82,0.00,,,0.38,meteohub,2013-11-18 10:43:00,
2013-11-18 05:48:00,48.0,42.4,29.60,WSW,254,36.0,42.0,81,0.00,,,0.38,meteohub,2013-11-18 10:48:00,
2013-11-18 05:53:00,48.0,42.1,29.60,WSW,243,33.0,43.0,80,0.00,,,0.38,meteohub,2013-11-18 10:53:00,
2013-11-18 05:58:00,47.8,41.9,29.60,WSW,251,40.0,44.0,80,0.00,,,0.38,meteohub,2013-11-18 10:58:00,
2013-11-18 06:03:00,47.8,42.3,29.60,WSW,252,32.0,46.0,81,0.00,,,0.38,meteohub,2013-11-18 11:03:00,
2013-11-18 06:08:00,47.7,41.5,29.60,WSW,248,37.0,46.0,79,0.00,,,0.38,meteohub,2013-11-18 11:08:00,
2013-11-18 06:13:00,47.8,41.0,29.60,WSW,237,34.0,46.0,77,0.00,,,0.38,meteohub,2013-11-18 11:13:00,
2013-11-18 06:18:00,47.8,40.6,29.61,WSW,254,29.0,45.0,76,0.00,,,0.38,meteohub,2013-11-18 11:18:00,
2013-11-18 06:24:00,47.7,42.1,29.60,WSW,255,39.0,45.0,81,0.00,,,0.38,meteohub,2013-11-18 11:24:00,
2013-11-18 06:29:00,47.7,41.7,29.60,West,259,38.0,45.0,80,0.00,,,0.38,meteohub,2013-11-18 11:29:00,
2013-11-18 06:34:00,47.7,41.2,29.60,West,263,29.0,45.0,78,0.00,,,0.38,meteohub,2013-11-18 11:34:00,
2013-11-18 06:39:00,47.7,41.2,29.61,West,268,29.0,45.0,78,0.00,,,0.38,meteohub,2013-11-18 11:39:00,
2013-11-18 06:44:00,47.5,42.3,29.61,West,271,26.0,44.0,82,0.00,,,0.38,meteohub,2013-11-18 11:44:00,
2013-11-18 06:49:00,47.5,42.8,29.61,WSW,248,27.0,42.0,84,0.00,,,0.38,meteohub,2013-11-18 11:49:00,
2013-11-18 06:54:00,47.5,43.5,29.61,West,264,27.0,40.0,86,0.00,,,0.38,meteohub,2013-11-18 11:54:00,
2013-11-18 06:59:00,47.3,43.3,29.61,WSW,249,23.0,39.0,86,0.00,,,0.38,meteohub,2013-11-18 11:59:00,
2013-11-18 07:04:00,47.3,42.1,29.61,WSW,246,17.0,39.0,82,0.00,,,0.38,meteohub,2013-11-18 12:04:00,
2013-11-18 07:09:00,47.5,41.9,29.61,WSW,249,27.0,39.0,81,0.00,,,0.38,meteohub,2013-11-18 12:09:00,
2013-11-18 07:14:00,47.5,41.9,29.62,WSW,255,25.0,29.0,81,0.00,,,0.38,meteohub,2013-11-18 12:14:00,
2013-11-18 07:19:00,47.1,42.3,29.62,West,270,39.0,39.0,83,0.00,,,0.38,meteohub,2013-11-18 12:19:00,
2013-11-18 07:25:00,46.9,42.4,29.62,WSW,257,29.0,38.0,84,0.00,,,0.38,meteohub,2013-11-18 12:25:00,
2013-11-18 07:30:00,46.9,42.6,29.61,West,264,28.0,42.0,85,0.00,,,0.38,meteohub,2013-11-18 12:30:00,
2013-11-18 07:35:00,46.9,42.6,29.61,WSW,250,23.0,42.0,85,0.00,,,0.38,meteohub,2013-11-18 12:35:00,
2013-11-18 07:40:00,47.1,41.9,29.62,WSW,250,25.0,42.0,82,0.00,,,0.38,meteohub,2013-11-18 12:40:00,
2013-11-18 07:45:00,47.3,41.4,29.62,WSW,250,19.0,36.0,80,0.00,,,0.38,meteohub,2013-11-18 12:45:00,
2013-11-18 07:50:00,47.3,41.2,29.62,WSW,254,24.0,32.0,79,0.00,,,0.38,meteohub,2013-11-18 12:50:00,
2013-11-18 07:55:00,47.3,41.2,29.62,WSW,248,21.0,33.0,79,0.00,,,0.38,meteohub,2013-11-18 12:55:00,
2013-11-18 08:00:00,47.1,41.9,29.62,West,265,30.0,35.0,82,0.00,,,0.38,meteohub,2013-11-18 13:00:00,
2013-11-18 08:05:00,46.9,42.1,29.62,WSW,257,32.0,42.0,83,0.00,,,0.38,meteohub,2013-11-18 13:05:00,
2013-11-18 08:10:00,46.8,42.4,29.63,WSW,252,26.0,42.0,85,0.00,,,0.38,meteohub,2013-11-18 13:10:00,
2013-11-18 08:15:00,46.8,41.2,29.63,West,259,23.0,42.0,81,0.00,,,0.38,meteohub,2013-11-18 13:15:00,
2013-11-18 08:20:00,46.9,40.5,29.63,WSW,250,25.0,39.0,78,0.00,,,0.38,meteohub,2013-11-18 13:20:00,
2013-11-18 08:26:00,47.1,40.3,29.63,WSW,244,25.0,37.0,77,0.00,,,0.38,meteohub,2013-11-18 13:26:00,
2013-11-18 08:31:00,46.8,40.6,29.64,West,263,38.0,42.0,79,0.00,,,0.38,meteohub,2013-11-18 13:31:00,
2013-11-18 08:36:00,46.6,41.4,29.64,WSW,243,37.0,45.0,82,0.00,,,0.38,meteohub,2013-11-18 13:36:00,
2013-11-18 08:41:00,46.2,41.7,29.64,WSW,250,27.0,45.0,84,0.00,,,0.38,meteohub,2013-11-18 13:41:00,
2013-11-18 08:46:00,46.2,41.9,29.64,WSW,253,34.0,43.0,85,0.00,,,0.38,meteohub,2013-11-18 13:46:00,
2013-11-18 08:51:00,46.0,42.6,29.63,West,269,34.0,42.0,88,0.00,,,0.38,meteohub,2013-11-18 13:51:00,
2013-11-18 08:56:00,46.0,42.6,29.64,West,260,34.0,42.0,88,0.00,,,0.38,meteohub,2013-11-18 13:56:00,
2013-11-18 09:02:00,46.2,41.9,29.64,West,265,34.0,42.0,85,0.00,,,0.38,meteohub,2013-11-18 14:02:00,
2013-11-18 09:07:00,46.4,41.2,29.64,WSW,253,26.0,41.0,82,0.00,,,0.38,meteohub,2013-11-18 14:07:00,
2013-11-18 09:12:00,46.2,40.5,29.64,WSW,247,31.0,51.0,80,0.00,,,0.38,meteohub,2013-11-18 14:12:00,
2013-11-18 09:17:00,46.2,40.6,29.65,WSW,254,36.0,51.0,81,0.00,,,0.38,meteohub,2013-11-18 14:17:00,
2013-11-18 09:22:00,46.0,40.3,29.64,West,260,40.0,51.0,80,0.00,,,0.38,meteohub,2013-11-18 14:22:00,
2013-11-18 09:27:00,45.9,40.6,29.64,West,259,37.0,44.0,82,0.00,,,0.38,meteohub,2013-11-18 14:27:00,
2013-11-18 09:32:00,45.9,39.7,29.64,SW,235,26.0,45.0,79,0.00,,,0.38,meteohub,2013-11-18 14:32:00,
2013-11-18 09:37:00,45.7,40.1,29.65,West,259,34.0,46.0,81,0.00,,,0.38,meteohub,2013-11-18 14:37:00,
2013-11-18 09:42:00,45.7,39.9,29.65,West,263,25.0,46.0,80,0.00,,,0.38,meteohub,2013-11-18 14:42:00,
2013-11-18 09:47:00,45.7,39.9,29.65,WSW,258,33.0,43.0,80,0.00,,,0.38,meteohub,2013-11-18 14:47:00,
2013-11-18 09:52:00,45.7,40.5,29.65,WSW,252,33.0,43.0,82,0.00,,,0.38,meteohub,2013-11-18 14:52:00,
2013-11-18 09:57:00,45.5,41.0,29.65,West,259,32.0,43.0,84,0.00,,,0.38,meteohub,2013-11-18 14:57:00,
2013-11-18 10:02:00,45.7,40.1,29.65,WSW,249,33.0,42.0,81,0.00,,,0.38,meteohub,2013-11-18 15:02:00,
2013-11-18 10:07:00,45.3,40.5,29.65,WSW,253,28.0,42.0,83,0.00,,,0.38,meteohub,2013-11-18 15:07:00,
2013-11-18 10:13:00,45.3,40.5,29.65,WSW,249,40.0,42.0,83,0.00,,,0.38,meteohub,2013-11-18 15:13:00,
2013-11-18 10:18:00,45.3,40.8,29.66,WSW,247,31.0,43.0,84,0.00,,,0.38,meteohub,2013-11-18 15:18:00,
2013-11-18 10:23:00,45.1,40.8,29.66,West,259,37.0,43.0,85,0.00,,,0.38,meteohub,2013-11-18 15:23:00,
2013-11-18 10:28:00,45.1,40.8,29.65,WSW,258,41.0,43.0,85,0.00,,,0.38,meteohub,2013-11-18 15:28:00,
2013-11-18 10:33:00,45.1,41.2,29.66,West,266,34.0,48.0,86,0.00,,,0.38,meteohub,2013-11-18 15:33:00,
2013-11-18 10:38:00,45.1,41.2,29.65,WSW,257,33.0,48.0,86,0.00,,,0.38,meteohub,2013-11-18 15:38:00,
2013-11-18 10:44:00,45.1,41.2,29.66,WSW,255,36.0,48.0,86,0.00,,,0.38,meteohub,2013-11-18 15:44:00,
2013-11-18 10:49:00,45.1,41.2,29.65,WSW,258,27.0,46.0,86,0.00,,,0.38,meteohub,2013-11-18 15:49:00,
2013-11-18 10:51:00,45.0,40.5,29.65,WSW,250,39.0,46.0,84,0.00,,,0.38,meteohub,2013-11-18 15:51:00,
2013-11-18 10:56:00,45.0,40.5,29.66,WSW,247,40.0,46.0,84,0.00,,,0.38,meteohub,2013-11-18 15:56:00,
2013-11-18 11:01:00,44.8,40.8,29.66,West,261,37.0,46.0,86,0.00,,,0.38,meteohub,2013-11-18 16:01:00,
2013-11-18 11:06:00,44.8,40.3,29.66,WSW,256,37.0,46.0,84,0.00,,,0.38,meteohub,2013-11-18 16:06:00,
2013-11-18 11:11:00,44.8,40.3,29.66,WSW,252,40.0,50.0,84,0.00,,,0.38,meteohub,2013-11-18 16:11:00,
2013-11-18 11:16:00,45.0,40.6,29.66,West,263,38.0,50.0,85,0.00,,,0.38,meteohub,2013-11-18 16:16:00,
2013-11-18 11:22:00,44.8,40.3,29.66,West,265,33.0,49.0,84,0.00,,,0.38,meteohub,2013-11-18 16:22:00,
2013-11-18 11:27:00,45.0,40.5,29.66,West,261,37.0,46.0,84,0.00,,,0.38,meteohub,2013-11-18 16:27:00,
2013-11-18 11:32:00,45.0,40.5,29.67,WSW,258,40.0,47.0,84,0.00,,,0.38,meteohub,2013-11-18 16:32:00,
2013-11-18 11:37:00,45.0,40.5,29.66,WSW,256,31.0,47.0,84,0.00,,,0.38,meteohub,2013-11-18 16:37:00,
2013-11-18 11:42:00,44.8,40.5,29.65,West,261,34.0,47.0,85,0.00,,,0.38,meteohub,2013-11-18 16:42:00,
2013-11-18 11:47:00,44.8,40.5,29.66,WSW,257,39.0,47.0,85,0.00,,,0.38,meteohub,2013-11-18 16:47:00,
2013-11-18 11:52:00,44.8,40.3,29.66,West,259,38.0,47.0,84,0.00,,,0.38,meteohub,2013-11-18 16:52:00,
2013-11-18 11:57:00,45.0,40.1,29.66,West,261,37.0,52.0,83,0.00,,,0.38,meteohub,2013-11-18 16:57:00,
2013-11-18 12:02:00,45.0,40.5,29.66,WSW,257,41.0,52.0,84,0.00,,,0.38,meteohub,2013-11-18 17:02:00,
2013-11-18 12:07:00,44.8,40.3,29.66,WSW,246,36.0,52.0,84,0.00,,,0.38,meteohub,2013-11-18 17:07:00,
2013-11-18 12:12:00,44.8,40.5,29.66,West,260,35.0,46.0,85,0.00,,,0.38,meteohub,2013-11-18 17:12:00,
2013-11-18 12:17:00,45.0,40.1,29.66,West,259,36.0,46.0,83,0.00,,,0.38,meteohub,2013-11-18 17:17:00,
2013-11-18 12:22:00,45.0,40.1,29.66,WSW,251,35.0,46.0,83,0.00,,,0.38,meteohub,2013-11-18 17:22:00,
2013-11-18 12:27:00,45.0,39.7,29.66,WSW,254,30.0,46.0,82,0.00,,,0.38,meteohub,2013-11-18 17:27:00,
2013-11-18 12:32:00,45.0,39.7,29.66,WSW,258,33.0,46.0,82,0.00,,,0.38,meteohub,2013-11-18 17:32:00,
2013-11-18 12:37:00,45.0,40.1,29.66,WSW,254,33.0,46.0,83,0.00,,,0.38,meteohub,2013-11-18 17:37:00,
2013-11-18 12:42:00,45.0,40.5,29.67,WSW,247,33.0,47.0,84,0.00,,,0.38,meteohub,2013-11-18 17:42:00,
2013-11-18 12:47:00,45.0,40.5,29.67,WSW,254,34.0,50.0,84,0.00,,,0.38,meteohub,2013-11-18 17:47:00,
2013-11-18 12:52:00,44.8,39.9,29.67,West,266,40.0,50.0,83,0.00,,,0.38,meteohub,2013-11-18 17:52:00,
2013-11-18 12:57:00,45.0,40.6,29.67,West,261,41.0,50.0,85,0.00,,,0.38,meteohub,2013-11-18 17:57:00,
2013-11-18 13:02:00,45.0,40.5,29.67,WSW,253,38.0,47.0,84,0.00,,,0.38,meteohub,2013-11-18 18:02:00,
2013-11-18 13:07:00,45.0,40.6,29.67,WSW,252,33.0,50.0,85,0.00,,,0.38,meteohub,2013-11-18 18:07:00,
2013-11-18 13:12:00,45.0,40.6,29.68,WSW,251,38.0,50.0,85,0.00,,,0.38,meteohub,2013-11-18 18:12:00,
2013-11-18 13:17:00,44.8,40.3,29.68,West,259,37.0,50.0,84,0.00,,,0.38,meteohub,2013-11-18 18:17:00,
2013-11-18 13:22:00,44.8,39.9,29.68,West,259,53.0,53.0,83,0.00,,,0.38,meteohub,2013-11-18 18:22:00,
2013-11-18 13:27:00,44.8,40.3,29.68,WSW,258,43.0,53.0,84,0.00,,,0.38,meteohub,2013-11-18 18:27:00,
2013-11-18 13:32:00,44.8,39.9,29.68,WSW,243,34.0,53.0,83,0.00,,,0.38,meteohub,2013-11-18 18:32:00,
2013-11-18 13:37:00,45.0,39.7,29.68,WSW,250,33.0,53.0,82,0.00,,,0.38,meteohub,2013-11-18 18:37:00,
2013-11-18 13:42:00,45.0,40.1,29.68,West,259,44.0,46.0,83,0.00,,,0.38,meteohub,2013-11-18 18:42:00,
2013-11-18 13:47:00,45.0,40.5,29.68,West,267,33.0,47.0,84,0.00,,,0.38,meteohub,2013-11-18 18:47:00,
2013-11-18 13:52:00,45.0,39.7,29.69,West,262,37.0,51.0,82,0.00,,,0.38,meteohub,2013-11-18 18:52:00,
2013-11-18 13:57:00,45.0,40.5,29.69,West,265,34.0,51.0,84,0.00,,,0.38,meteohub,2013-11-18 18:57:00,
2013-11-18 14:02:00,45.0,40.5,29.69,West,259,30.0,51.0,84,0.00,,,0.38,meteohub,2013-11-18 19:02:00,
2013-11-18 14:07:00,45.1,41.2,29.69,WSW,254,36.0,49.0,86,0.00,,,0.38,meteohub,2013-11-18 19:07:00,
2013-11-18 14:12:00,45.1,40.6,29.70,West,275,33.0,46.0,84,0.00,,,0.38,meteohub,2013-11-18 19:12:00,
2013-11-18 14:17:00,45.1,39.0,29.70,West,261,46.0,46.0,79,0.00,,,0.38,meteohub,2013-11-18 19:17:00,
2013-11-18 14:22:00,45.1,38.3,29.70,West,270,43.0,52.0,77,0.00,,,0.38,meteohub,2013-11-18 19:22:00,
2013-11-18 14:27:00,45.5,38.7,29.71,West,267,36.0,52.0,77,0.00,,,0.38,meteohub,2013-11-18 19:27:00,
2013-11-18 14:32:00,45.3,38.8,29.71,West,267,31.0,48.0,78,0.00,,,0.38,meteohub,2013-11-18 19:32:00,
2013-11-18 14:37:00,45.1,39.0,29.71,West,265,33.0,46.0,79,0.00,,,0.38,meteohub,2013-11-18 19:37:00,
2013-11-18 14:42:00,45.5,37.4,29.71,West,263,37.0,42.0,73,0.00,,,0.38,meteohub,2013-11-18 19:42:00,
2013-11-18 14:47:00,45.5,37.0,29.71,WSW,251,33.0,46.0,72,0.00,,,0.38,meteohub,2013-11-18 19:47:00,
2013-11-18 14:52:00,45.5,38.1,29.71,West,265,35.0,46.0,75,0.00,,,0.38,meteohub,2013-11-18 19:52:00,
2013-11-18 14:57:00,45.3,37.9,29.71,West,268,43.0,46.0,75,0.00,,,0.38,meteohub,2013-11-18 19:57:00,
2013-11-18 15:02:00,45.1,38.7,29.71,West,263,40.0,45.0,78,0.00,,,0.38,meteohub,2013-11-18 20:02:00,
2013-11-18 15:07:00,45.0,38.5,29.72,West,261,33.0,46.0,78,0.00,,,0.38,meteohub,2013-11-18 20:07:00,
2013-11-18 15:12:00,45.0,38.8,29.72,WSW,252,35.0,46.0,79,0.00,,,0.38,meteohub,2013-11-18 20:12:00,
2013-11-18 15:17:00,45.0,38.1,29.72,West,273,36.0,46.0,77,0.00,,,0.38,meteohub,2013-11-18 20:17:00,
2013-11-18 15:22:00,45.1,38.3,29.72,West,266,34.0,51.0,77,0.00,,,0.38,meteohub,2013-11-18 20:22:00,
2013-11-18 15:27:00,45.1,38.3,29.73,West,264,39.0,51.0,77,0.00,,,0.38,meteohub,2013-11-18 20:27:00,
2013-11-18 15:32:00,45.0,38.8,29.73,West,274,40.0,46.0,79,0.00,,,0.38,meteohub,2013-11-18 20:32:00,
2013-11-18 15:37:00,45.0,39.6,29.74,WNW,284,30.0,45.0,81,0.00,,,0.38,meteohub,2013-11-18 20:37:00,
2013-11-18 15:42:00,44.4,38.3,29.75,WNW,284,39.0,50.0,79,0.00,,,0.38,meteohub,2013-11-18 20:42:00,
2013-11-18 15:47:00,44.2,38.1,29.75,WNW,286,32.0,50.0,79,0.00,,,0.38,meteohub,2013-11-18 20:47:00,
2013-11-18 15:52:00,44.2,38.1,29.75,West,281,36.0,50.0,79,0.00,,,0.38,meteohub,2013-11-18 20:52:00,
2013-11-18 15:57:00,44.2,37.8,29.76,WNW,288,34.0,40.0,78,0.00,,,0.38,meteohub,2013-11-18 20:57:00,
2013-11-18 16:02:00,44.2,37.8,29.76,WNW,284,35.0,41.0,78,0.00,,,0.38,meteohub,2013-11-18 21:02:00,
2013-11-18 16:07:00,44.2,38.1,29.77,West,281,32.0,41.0,79,0.00,,,0.38,meteohub,2013-11-18 21:07:00,
2013-11-18 16:12:00,44.2,38.1,29.77,WNW,289,28.0,43.0,79,0.00,,,0.38,meteohub,2013-11-18 21:12:00,
2013-11-18 16:17:00,44.1,37.4,29.77,West,278,33.0,43.0,77,0.00,,,0.38,meteohub,2013-11-18 21:17:00,
2013-11-18 16:22:00,44.1,37.6,29.78,WNW,288,29.0,43.0,78,0.00,,,0.38,meteohub,2013-11-18 21:22:00,
2013-11-18 16:27:00,44.1,37.9,29.78,WNW,294,33.0,41.0,79,0.00,,,0.38,meteohub,2013-11-18 21:27:00,
2013-11-18 16:32:00,43.9,37.4,29.78,WNW,286,31.0,41.0,78,0.00,,,0.38,meteohub,2013-11-18 21:32:00,
2013-11-18 16:37:00,43.7,37.6,29.79,WNW,284,30.0,40.0,79,0.00,,,0.38,meteohub,2013-11-18 21:37:00,
2013-11-18 16:42:00,43.5,38.1,29.79,WNW,291,34.0,42.0,81,0.00,,,0.38,meteohub,2013-11-18 21:42:00,
2013-11-18 16:47:00,43.5,38.1,29.80,WNW,284,31.0,46.0,81,0.00,,,0.38,meteohub,2013-11-18 21:47:00,
2013-11-18 16:52:00,43.3,37.9,29.80,WNW,292,33.0,46.0,81,0.00,,,0.38,meteohub,2013-11-18 21:52:00,
2013-11-18 16:57:00,43.3,37.2,29.81,WNW,290,39.0,46.0,79,0.00,,,0.38,meteohub,2013-11-18 21:57:00,
2013-11-18 17:02:00,43.5,36.5,29.81,WNW,284,30.0,46.0,76,0.00,,,0.38,meteohub,2013-11-18 22:02:00,
2013-11-18 17:07:00,43.5,35.8,29.81,WNW,286,40.0,46.0,74,0.00,,,0.38,meteohub,2013-11-18 22:07:00,
2013-11-18 17:12:00,43.7,36.7,29.82,WNW,285,41.0,46.0,76,0.00,,,0.38,meteohub,2013-11-18 22:12:00,
2013-11-18 17:17:00,43.5,36.9,29.81,WNW,288,31.0,46.0,77,0.00,,,0.38,meteohub,2013-11-18 22:17:00,
2013-11-18 17:22:00,43.5,36.5,29.82,WNW,293,31.0,46.0,76,0.00,,,0.38,meteohub,2013-11-18 22:22:00,
2013-11-18 17:27:00,43.3,36.7,29.83,WNW,284,35.0,45.0,77,0.00,,,0.38,meteohub,2013-11-18 22:27:00,
2013-11-18 17:32:00,43.0,36.0,29.82,WNW,290,31.0,45.0,76,0.00,,,0.38,meteohub,2013-11-18 22:32:00,
2013-11-18 17:37:00,42.8,35.8,29.83,WNW,294,28.0,45.0,76,0.00,,,0.38,meteohub,2013-11-18 22:37:00,
2013-11-18 17:42:00,42.6,36.5,29.83,WNW,299,28.0,42.0,79,0.00,,,0.38,meteohub,2013-11-18 22:42:00,
2013-11-18 17:47:00,42.4,37.4,29.84,NW,305,26.0,42.0,82,0.00,,,0.38,meteohub,2013-11-18 22:47:00,
2013-11-18 17:52:00,42.3,36.9,29.84,WNW,293,32.0,42.0,81,0.00,,,0.38,meteohub,2013-11-18 22:52:00,
2013-11-18 17:57:00,42.3,36.5,29.84,NW,308,37.0,44.0,80,0.00,,,0.38,meteohub,2013-11-18 22:57:00,
2013-11-18 18:02:00,42.1,35.8,29.84,WNW,295,33.0,44.0,78,0.00,,,0.38,meteohub,2013-11-18 23:02:00,
2013-11-18 18:07:00,41.9,35.8,29.85,WNW,288,33.0,46.0,79,0.00,,,0.38,meteohub,2013-11-18 23:07:00,
2013-11-18 18:12:00,41.7,35.8,29.85,WNW,302,26.0,46.0,79,0.00,,,0.38,meteohub,2013-11-18 23:12:00,
2013-11-18 18:17:00,41.5,36.1,29.86,WNW,293,30.0,46.0,81,0.00,,,0.38,meteohub,2013-11-18 23:17:00,
2013-11-18 18:22:00,41.0,35.2,29.86,WNW,292,38.0,45.0,80,0.00,,,0.38,meteohub,2013-11-18 23:22:00,
2013-11-18 18:27:00,41.0,35.2,29.86,WNW,294,35.0,45.0,80,0.00,,,0.38,meteohub,2013-11-18 23:27:00,
2013-11-18 18:32:00,40.8,35.1,29.87,NW,305,32.0,46.0,80,0.00,,,0.38,meteohub,2013-11-18 23:32:00,
2013-11-18 18:37:00,40.6,34.9,29.87,NW,306,34.0,46.0,80,0.00,,,0.38,meteohub,2013-11-18 23:37:00,
2013-11-18 18:42:00,40.6,34.7,29.87,NW,304,40.0,46.0,79,0.00,,,0.38,meteohub,2013-11-18 23:42:00,
2013-11-18 18:47:00,40.6,34.9,29.88,WNW,293,30.0,46.0,80,0.00,,,0.38,meteohub,2013-11-18 23:47:00,
2013-11-18 18:52:00,40.6,34.3,29.88,WNW,290,30.0,46.0,78,0.00,,,0.38,meteohub,2013-11-18 23:52:00,
2013-11-18 18:57:00,40.5,34.2,29.88,WNW,292,34.0,44.0,78,0.00,,,0.38,meteohub,2013-11-18 23:57:00,
2013-11-18 19:02:00,40.5,34.5,29.88,WNW,295,33.0,45.0,79,0.00,,,0.38,meteohub,2013-11-19 00:02:00,
2013-11-18 19:07:00,40.6,34.9,29.89,WNW,300,33.0,45.0,80,0.00,,,0.00,meteohub,2013-11-19 00:07:00,
2013-11-18 19:12:00,40.5,33.8,29.89,WNW,299,29.0,42.0,77,0.00,,,0.00,meteohub,2013-11-19 00:12:00,
2013-11-18 19:17:00,40.5,34.2,29.89,WNW,290,31.0,43.0,78,0.00,,,0.00,meteohub,2013-11-19 00:17:00,
2013-11-18 19:22:00,40.5,33.8,29.89,WNW,287,38.0,44.0,77,0.00,,,0.00,meteohub,2013-11-19 00:22:00,
2013-11-18 19:27:00,40.3,33.6,29.89,WNW,292,33.0,45.0,77,0.00,,,0.00,meteohub,2013-11-19 00:27:00,
2013-11-18 19:32:00,40.3,33.6,29.89,WNW,285,38.0,45.0,77,0.00,,,0.00,meteohub,2013-11-19 00:32:00,
2013-11-18 19:37:00,40.3,33.6,29.89,West,278,31.0,45.0,77,0.00,,,0.00,meteohub,2013-11-19 00:37:00,
2013-11-18 19:42:00,40.5,33.8,29.90,WNW,296,32.0,42.0,77,0.00,,,0.00,meteohub,2013-11-19 00:42:00,
2013-11-18 19:47:00,40.3,33.3,29.90,WNW,287,30.0,40.0,76,0.00,,,0.00,meteohub,2013-11-19 00:47:00,
2013-11-18 19:52:00,40.1,33.4,29.91,WNW,295,29.0,41.0,77,0.00,,,0.00,meteohub,2013-11-19 00:52:00,
2013-11-18 19:57:00,40.3,33.6,29.91,WNW,292,36.0,43.0,77,0.00,,,0.00,meteohub,2013-11-19 00:57:00,
2013-11-18 20:02:00,39.9,33.3,29.91,WNW,302,30.0,43.0,77,0.00,,,0.00,meteohub,2013-11-19 01:02:00,
2013-11-18 20:07:00,39.7,33.1,29.92,WNW,300,37.0,43.0,77,0.00,,,0.00,meteohub,2013-11-19 01:07:00,
2013-11-18 20:12:00,39.6,32.4,29.92,WNW,302,36.0,42.0,75,0.00,,,0.00,meteohub,2013-11-19 01:12:00,
2013-11-18 20:17:00,39.4,31.1,29.93,WNW,302,33.0,42.0,72,0.00,,,0.00,meteohub,2013-11-19 01:17:00,
2013-11-18 20:22:00,39.4,31.8,29.93,WNW,285,36.0,40.0,74,0.00,,,0.00,meteohub,2013-11-19 01:22:00,
2013-11-18 20:27:00,39.4,31.1,29.93,WNW,290,31.0,42.0,72,0.00,,,0.00,meteohub,2013-11-19 01:27:00,
2013-11-18 20:32:00,39.6,30.9,29.93,WNW,292,29.0,42.0,71,0.00,,,0.00,meteohub,2013-11-19 01:32:00,
2013-11-18 20:37:00,39.4,31.1,29.94,WNW,294,24.0,42.0,72,0.00,,,0.00,meteohub,2013-11-19 01:37:00,
2013-11-18 20:42:00,39.4,30.7,29.94,NW,310,22.0,42.0,71,0.00,,,0.00,meteohub,2013-11-19 01:42:00,
2013-11-18 20:47:00,39.4,30.4,29.94,WNW,287,26.0,38.0,70,0.00,,,0.00,meteohub,2013-11-19 01:47:00,
2013-11-18 20:48:00,39.4,31.1,29.93,WNW,288,25.0,38.0,72,0.00,,,0.00,meteohub,2013-11-19 01:48:00,
2013-11-18 20:53:00,39.4,30.0,29.94,WNW,292,27.0,38.0,69,0.00,,,0.00,meteohub,2013-11-19 01:53:00,
2013-11-18 20:59:00,39.6,30.9,29.95,WNW,298,33.0,37.0,71,0.00,,,0.00,meteohub,2013-11-19 01:59:00,
2013-11-18 21:04:00,39.4,30.4,29.95,WNW,296,32.0,37.0,70,0.00,,,0.00,meteohub,2013-11-19 02:04:00,
2013-11-18 21:09:00,39.4,31.5,29.95,WNW,292,29.0,36.0,73,0.00,,,0.00,meteohub,2013-11-19 02:09:00,
2013-11-18 21:14:00,39.4,31.5,29.95,NW,310,28.0,39.0,73,0.00,,,0.00,meteohub,2013-11-19 02:14:00,
2013-11-18 21:19:00,39.4,30.4,29.96,West,279,28.0,39.0,70,0.00,,,0.00,meteohub,2013-11-19 02:19:00,
2013-11-18 21:25:00,39.4,30.4,29.96,WNW,296,25.0,39.0,70,0.00,,,0.00,meteohub,2013-11-19 02:25:00,
2013-11-18 21:30:00,39.4,31.5,29.96,NW,306,26.0,39.0,73,0.00,,,0.00,meteohub,2013-11-19 02:30:00,
2013-11-18 21:35:00,39.4,31.1,29.96,WNW,291,29.0,39.0,72,0.00,,,0.00,meteohub,2013-11-19 02:35:00,
2013-11-18 21:40:00,39.4,31.1,29.96,WNW,292,29.0,37.0,72,0.00,,,0.00,meteohub,2013-11-19 02:40:00,
2013-11-18 21:45:00,39.4,31.1,29.97,NW,304,27.0,38.0,72,0.00,,,0.00,meteohub,2013-11-19 02:45:00,
2013-11-18 21:50:00,39.4,30.7,29.97,NW,309,27.0,38.0,71,0.00,,,0.00,meteohub,2013-11-19 02:50:00,
2013-11-18 21:56:00,39.4,30.7,29.97,WNW,291,27.0,36.0,71,0.00,,,0.00,meteohub,2013-11-19 02:56:00,
2013-11-18 22:01:00,39.2,30.2,29.97,WNW,293,25.0,34.0,70,0.00,,,0.00,meteohub,2013-11-19 03:01:00,
2013-11-18 22:06:00,39.0,29.7,29.97,WNW,284,24.0,34.0,69,0.00,,,0.00,meteohub,2013-11-19 03:06:00,
2013-11-18 22:11:00,39.2,31.3,29.97,WNW,288,23.0,34.0,73,0.00,,,0.00,meteohub,2013-11-19 03:11:00,
2013-11-18 22:17:00,39.2,30.6,29.98,WNW,290,32.0,34.0,71,0.00,,,0.00,meteohub,2013-11-19 03:17:00,
2013-11-18 22:22:00,39.0,30.0,29.98,NW,323,21.0,35.0,70,0.00,,,0.00,meteohub,2013-11-19 03:22:00,
2013-11-18 22:27:00,39.2,30.9,29.99,WNW,302,28.0,35.0,72,0.00,,,0.00,meteohub,2013-11-19 03:27:00,
2013-11-18 22:32:00,39.0,30.0,29.99,WNW,302,27.0,35.0,70,0.00,,,0.00,meteohub,2013-11-19 03:32:00,
2013-11-18 22:37:00,38.8,29.8,29.99,NW,304,21.0,33.0,70,0.00,,,0.00,meteohub,2013-11-19 03:37:00,
2013-11-18 22:42:00,39.0,30.7,29.99,WNW,300,27.0,36.0,72,0.00,,,0.00,meteohub,2013-11-19 03:42:00,
2013-11-18 22:47:00,39.0,30.4,29.99,WNW,291,26.0,36.0,71,0.00,,,0.00,meteohub,2013-11-19 03:47:00,
2013-11-18 22:52:00,39.2,30.2,29.99,NW,309,23.0,36.0,70,0.00,,,0.00,meteohub,2013-11-19 03:52:00,
2013-11-18 22:57:00,39.2,31.3,29.99,WNW,293,23.0,33.0,73,0.00,,,0.00,meteohub,2013-11-19 03:57:00,
2013-11-18 23:02:00,39.0,30.0,29.99,WNW,290,24.0,33.0,70,0.00,,,0.00,meteohub,2013-11-19 04:02:00,
2013-11-18 23:07:00,39.0,30.7,29.99,NW,319,20.0,33.0,72,0.00,,,0.00,meteohub,2013-11-19 04:07:00,
2013-11-18 23:12:00,39.0,30.0,30.00,WNW,300,22.0,35.0,70,0.00,,,0.00,meteohub,2013-11-19 04:12:00,
2013-11-18 23:17:00,39.0,30.0,30.00,WNW,296,23.0,35.0,70,0.00,,,0.00,meteohub,2013-11-19 04:17:00,
2013-11-18 23:22:00,38.8,30.6,30.00,WNW,303,28.0,35.0,72,0.00,,,0.00,meteohub,2013-11-19 04:22:00,
2013-11-18 23:28:00,38.8,30.6,30.00,NW,315,20.0,35.0,72,0.00,,,0.00,meteohub,2013-11-19 04:28:00,
2013-11-18 23:33:00,38.8,29.8,30.00,WNW,296,23.0,35.0,70,0.00,,,0.00,meteohub,2013-11-19 04:33:00,
2013-11-18 23:38:00,38.8,30.6,30.00,WNW,292,25.0,35.0,72,0.00,,,0.00,meteohub,2013-11-19 04:38:00,
2013-11-18 23:43:00,38.8,30.2,30.00,NW,306,21.0,31.0,71,0.00,,,0.00,meteohub,2013-11-19 04:43:00,
2013-11-18 23:48:00,39.0,31.8,30.00,WNW,292,22.0,30.0,75,0.00,,,0.00,meteohub,2013-11-19 04:48:00,
2013-11-18 23:53:00,38.8,30.6,30.01,WNW,287,26.0,32.0,72,0.00,,,0.00,meteohub,2013-11-19 04:53:00,
2013-11-18 23:59:00,38.7,30.0,30.01,WNW,300,22.0,32.0,71,0.00,,,0.00,meteohub,2013-11-19 04:59:00,